Time;durP1;ratioP1;P1;durP2;ratioP2;P2;SDS_P1;SDS_P2;PMS_P1;PMS_P2;Temp;Humidity;BMP_temperature;BMP_pressure;BME280_temperature;BME280_humidity;BME280_pressure;Samples;Min_cycle;Max_cycle;Signal;HPM_P1;HPM_P2
2024/02/28 00:00:54;;;;;;;65.63;20.50;;;;;;;5.24;100.00;101180.16;6043365;23;20191;-72
2024/02/28 00:03:21;;;;;;;59.67;20.37;;;;;;;5.25;100.00;101167.88;6042973;23;20198;-72
2024/02/28 00:05:48;;;;;;;64.67;21.20;;;;;;;5.23;100.00;101168.13;6043290;23;20750;-72
2024/02/28 00:08:14;;;;;;;60.33;22.53;;;;;;;5.25;100.00;101168.66;6042938;23;20175;-72
2024/02/28 00:10:41;;;;;;;62.00;21.80;;;;;;;5.25;100.00;101173.09;6043428;23;20167;-72
2024/02/28 00:13:08;;;;;;;67.73;22.60;;;;;;;5.24;100.00;101172.31;6007969;23;20541;-72
2024/02/28 00:15:35;;;;;;;62.77;21.10;;;;;;;5.24;100.00;101177.56;6043440;23;20168;-72
2024/02/28 00:18:01;;;;;;;54.93;19.40;;;;;;;5.23;100.00;101177.84;6043604;23;20176;-72
2024/02/28 00:20:29;;;;;;;56.63;20.70;;;;;;;5.24;100.00;101182.03;6043672;23;20202;-72
2024/02/28 00:22:56;;;;;;;69.20;21.03;;;;;;;5.21;100.00;101178.13;6042852;23;20219;-72
2024/02/28 00:25:22;;;;;;;56.57;20.30;;;;;;;5.23;100.00;101186.47;6043091;23;20171;-72
2024/02/28 00:27:48;;;;;;;64.17;22.00;;;;;;;5.23;100.00;101177.84;6042537;23;20182;-72
2024/02/28 00:30:16;;;;;;;53.63;20.83;;;;;;;5.21;100.00;101175.50;6042661;23;20254;-72
2024/02/28 00:32:42;;;;;;;56.73;19.23;;;;;;;5.21;100.00;101188.59;6043029;23;20247;-72
2024/02/28 00:35:09;;;;;;;60.23;20.20;;;;;;;5.20;100.00;101187.03;6042587;23;20171;-72
2024/02/28 00:37:35;;;;;;;59.50;20.17;;;;;;;5.22;100.00;101191.97;6043376;23;20203;-72
2024/02/28 00:40:02;;;;;;;50.63;18.97;;;;;;;5.22;100.00;101199.81;6008210;23;20203;-72
2024/02/28 00:42:28;;;;;;;60.10;21.60;;;;;;;5.22;100.00;101186.72;6042872;23;20278;-72
2024/02/28 00:44:55;;;;;;;56.70;20.00;;;;;;;5.20;100.00;101189.66;6042250;23;20250;-72
2024/02/28 00:47:23;;;;;;;50.27;19.07;;;;;;;5.22;100.00;101194.59;6042852;23;20175;-72
2024/02/28 00:49:49;;;;;;;62.30;21.17;;;;;;;5.21;100.00;101188.59;6042869;23;20177;-72
2024/02/28 00:52:16;;;;;;;51.73;19.23;;;;;;;5.20;100.00;101184.41;6042818;23;20188;-72
2024/02/28 00:54:42;;;;;;;59.13;20.80;;;;;;;5.19;100.00;101185.44;6041426;23;20175;-72
2024/02/28 00:57:09;;;;;;;59.67;19.60;;;;;;;5.19;100.00;101182.06;6007693;23;20606;-72
2024/02/28 00:59:36;;;;;;;61.97;20.83;;;;;;;5.18;100.00;101183.13;6040545;23;20535;-72
2024/02/28 01:02:03;;;;;;;59.43;20.27;;;;;;;5.18;100.00;101186.50;6042469;23;20199;-72
2024/02/28 01:04:30;;;;;;;61.60;20.90;;;;;;;5.17;100.00;101184.94;6044883;23;20168;-72
2024/02/28 01:06:56;;;;;;;58.93;19.50;;;;;;;5.19;100.00;101187.31;6009806;23;20172;-72
2024/02/28 01:09:22;;;;;;;57.23;19.47;;;;;;;5.16;100.00;101188.63;6043350;23;20175;-72
2024/02/28 01:11:49;;;;;;;54.60;19.40;;;;;;;5.17;100.00;101186.78;6044556;23;20183;-72
2024/02/28 01:14:15;;;;;;;59.10;20.37;;;;;;;5.16;100.00;101186.00;6043845;23;20172;-72
2024/02/28 01:16:41;;;;;;;57.60;19.40;;;;;;;5.15;100.00;101183.66;6044803;23;20172;-72
2024/02/28 01:19:08;;;;;;;65.00;20.33;;;;;;;5.16;100.00;101183.41;6044083;23;20171;-72
2024/02/28 01:21:35;;;;;;;58.07;19.50;;;;;;;5.16;100.00;101183.41;6044676;23;20290;-72
2024/02/28 01:24:02;;;;;;;52.13;18.90;;;;;;;5.16;100.00;101182.59;6008621;23;20266;-72
2024/02/28 01:26:28;;;;;;;55.47;19.33;;;;;;;5.15;100.00;101181.03;6044635;23;20168;-72
2024/02/28 01:28:55;;;;;;;48.43;17.73;;;;;;;5.13;100.00;101180.56;6008900;23;20629;-72
2024/02/28 01:31:21;;;;;;;53.97;18.37;;;;;;;5.13;100.00;101185.78;6044552;23;20622;-72
2024/02/28 01:33:47;;;;;;;49.70;18.80;;;;;;;5.14;100.00;101188.09;6044364;23;20197;-72
2024/02/28 01:36:14;;;;;;;48.57;18.37;;;;;;;5.14;100.00;101184.72;6044140;23;20806;-72
2024/02/28 01:38:42;;;;;;;54.43;18.97;;;;;;;5.13;100.00;101176.06;6044369;23;20487;-72
2024/02/28 01:41:08;;;;;;;51.70;17.93;;;;;;;5.15;100.00;101181.84;6043277;23;20202;-72
2024/02/28 01:43:35;;;;;;;53.23;17.57;;;;;;;5.13;100.00;101181.31;6043727;23;20230;-72
2024/02/28 01:46:04;;;;;;;54.80;19.03;;;;;;;5.14;100.00;101182.88;6043770;23;20171;-72
2024/02/28 01:48:30;;;;;;;55.07;18.70;;;;;;;5.13;100.00;101176.06;6044546;23;20255;-72
2024/02/28 01:50:57;;;;;;;52.67;18.27;;;;;;;5.13;100.00;101173.47;6044664;23;20576;-72
2024/02/28 01:53:24;;;;;;;54.13;18.87;;;;;;;5.13;100.00;101176.06;6044509;23;20184;-72
2024/02/28 01:55:52;;;;;;;57.27;19.40;;;;;;;5.12;100.00;101169.28;6044030;23;20178;-72
2024/02/28 01:58:19;;;;;;;52.30;17.67;;;;;;;5.13;100.00;101177.94;6043473;23;20172;-72
2024/02/28 02:00:46;;;;;;;61.07;19.20;;;;;;;5.13;100.00;101175.31;6043675;23;20171;-72
2024/02/28 02:03:13;;;;;;;47.13;17.57;;;;;;;5.14;100.00;101187.34;6043153;23;20191;-72
2024/02/28 02:05:39;;;;;;;48.73;17.10;;;;;;;5.13;100.00;101177.94;6044081;23;20195;-72
2024/02/28 02:08:06;;;;;;;49.47;17.73;;;;;;;5.12;100.00;101179.75;6044013;23;20175;-72
2024/02/28 02:10:32;;;;;;;50.80;18.00;;;;;;;5.12;100.00;101181.59;6044294;23;20191;-72
2024/02/28 02:13:06;;;;;;;47.53;17.03;;;;;;;5.11;100.00;101180.81;6043208;23;20197;-72
2024/02/28 02:15:33;;;;;;;51.37;17.73;;;;;;;5.10;100.00;101171.41;6034881;23;20644;-72
2024/02/28 02:17:58;;;;;;;45.53;17.27;;;;;;;5.12;100.00;101181.59;6043923;23;20221;-72
2024/02/28 02:20:27;;;;;;;47.20;17.33;;;;;;;5.12;100.00;101179.00;6044198;23;20167;-72
2024/02/28 02:22:54;;;;;;;41.20;16.33;;;;;;;5.11;100.00;101174.78;6043143;23;20274;-72
2024/02/28 02:25:21;;;;;;;39.40;15.30;;;;;;;5.11;100.00;101175.59;6043391;23;20431;-72
2024/02/28 02:27:47;;;;;;;37.73;15.20;;;;;;;5.11;100.00;101172.16;6034429;23;20178;-72
2024/02/28 02:30:14;;;;;;;41.77;15.53;;;;;;;5.10;100.00;101174.03;6043250;23;20178;-72
2024/02/28 02:32:40;;;;;;;39.87;15.90;;;;;;;5.11;100.00;101180.03;6043597;23;20183;-72
2024/02/28 02:35:07;;;;;;;39.77;15.67;;;;;;;5.10;100.00;101181.88;6041693;23;20163;-72
2024/02/28 02:37:33;;;;;;;44.70;17.37;;;;;;;5.11;100.00;101174.78;6043794;23;20170;-72
2024/02/28 02:40:01;;;;;;;48.27;16.70;;;;;;;5.10;100.00;101183.69;6008517;23;20175;-72
2024/02/28 02:42:28;;;;;;;46.23;15.70;;;;;;;5.10;100.00;101179.25;6043898;23;20646;-72
2024/02/28 02:44:54;;;;;;;53.43;16.97;;;;;;;5.11;100.00;101186.06;6042355;23;20175;-72
2024/02/28 02:47:20;;;;;;;44.43;15.73;;;;;;;5.12;100.00;101184.22;6043661;23;20253;-72
2024/02/28 02:49:47;;;;;;;49.63;16.93;;;;;;;5.12;100.00;101187.59;6043679;23;20171;-72
2024/02/28 02:52:13;;;;;;;42.50;15.77;;;;;;;5.12;100.00;101192.06;6042979;23;20520;-72
2024/02/28 02:54:39;;;;;;;46.80;17.37;;;;;;;5.12;100.00;101195.47;6043376;23;20172;-72
2024/02/28 02:57:07;;;;;;;45.87;17.83;;;;;;;5.11;100.00;101195.72;6043332;23;20167;-72
2024/02/28 02:59:33;;;;;;;50.90;16.63;;;;;;;5.10;100.00;101194.97;6043772;23;20174;-72
2024/02/28 03:02:03;;;;;;;49.27;16.67;;;;;;;5.10;100.00;101184.50;6042874;23;20195;-72
2024/02/28 03:04:30;;;;;;;52.27;17.37;;;;;;;5.10;100.00;101189.72;6042975;23;20178;-72
2024/02/28 03:06:56;;;;;;;50.30;16.90;;;;;;;5.10;100.00;101184.50;6041563;23;20277;-72
2024/02/28 03:09:22;;;;;;;43.97;17.00;;;;;;;5.10;100.00;101191.56;6034224;23;20175;-72
2024/02/28 03:11:49;;;;;;;39.37;16.30;;;;;;;5.09;100.00;101196.03;6009259;23;20195;-72
2024/02/28 03:14:16;;;;;;;37.90;16.23;;;;;;;5.09;100.00;101193.41;6042319;23;20172;-72
2024/02/28 03:16:43;;;;;;;41.70;16.10;;;;;;;5.08;100.00;101193.69;6043706;23;20627;-72
2024/02/28 03:19:10;;;;;;;38.37;14.73;;;;;;;5.07;100.00;101192.88;6043204;23;20195;-72
2024/02/28 03:21:36;;;;;;;34.70;15.63;;;;;;;5.06;100.00;101198.38;6043381;23;20180;-72
2024/02/28 03:24:03;;;;;;;38.80;15.33;;;;;;;5.04;100.00;101200.50;6043054;23;20170;-72
2024/02/28 03:26:29;;;;;;;36.20;14.63;;;;;;;5.04;100.00;101193.44;6042385;23;20219;-72
2024/02/28 03:28:56;;;;;;;44.70;15.97;;;;;;;5.04;100.00;101200.50;6042994;23;20543;-72
2024/02/28 03:31:23;;;;;;;39.60;15.60;;;;;;;5.03;100.00;101193.72;6043270;23;20175;-72
2024/02/28 03:33:50;;;;;;;33.63;13.27;;;;;;;5.01;100.00;101201.84;6042861;23;20187;-72
2024/02/28 03:36:17;;;;;;;31.87;13.17;;;;;;;5.01;100.00;101211.50;6042507;23;20627;-72
2024/02/28 03:38:43;;;;;;;38.37;14.77;;;;;;;5.00;100.00;101204.72;6043339;23;20167;-72
2024/02/28 03:41:10;;;;;;;42.37;15.37;;;;;;;5.00;100.00;101202.88;6043222;23;20246;-72
2024/02/28 03:43:36;;;;;;;37.03;14.57;;;;;;;4.99;100.00;101205.78;6042625;23;20202;-72
2024/02/28 03:46:02;;;;;;;39.53;15.83;;;;;;;4.97;100.00;101200.81;6042550;23;20182;-72
2024/02/28 03:48:33;;;;;;;39.90;15.50;;;;;;;4.98;100.00;101212.84;6043200;23;20510;-72
2024/02/28 03:50:59;;;;;;;37.20;14.03;;;;;;;4.94;100.00;101211.84;6043125;23;20226;-72
2024/02/28 03:53:26;;;;;;;37.47;13.70;;;;;;;4.95;100.00;101215.22;6043438;23;20187;-72
2024/02/28 03:55:52;;;;;;;37.87;13.70;;;;;;;4.95;100.00;101221.25;6043687;23;20168;-72
2024/02/28 03:58:19;;;;;;;38.77;14.67;;;;;;;4.95;100.00;101212.59;6042682;23;20172;-72
2024/02/28 04:00:45;;;;;;;36.67;14.53;;;;;;;4.95;100.00;101210.78;6007985;23;20178;-72
2024/02/28 04:03:13;;;;;;;29.53;13.60;;;;;;;4.94;100.00;101206.59;6007647;23;20664;-72
2024/02/28 04:05:41;;;;;;;34.50;14.20;;;;;;;4.94;100.00;101218.91;6043120;23;20207;-72
2024/02/28 04:08:08;;;;;;;38.27;14.50;;;;;;;4.93;100.00;101218.09;6043231;23;20171;-72
2024/02/28 04:10:34;;;;;;;40.77;16.00;;;;;;;4.92;100.00;101215.78;6043707;23;20168;-72
2024/02/28 04:13:00;;;;;;;44.33;15.43;;;;;;;4.91;100.00;101222.84;6043760;23;20558;-72
2024/02/28 04:15:27;;;;;;;39.73;14.30;;;;;;;4.91;100.00;101225.44;6043336;23;20174;-72
2024/02/28 04:17:53;;;;;;;40.60;14.67;;;;;;;4.88;100.00;101220.75;6043427;23;20543;-72
2024/02/28 04:20:20;;;;;;;43.07;14.97;;;;;;;4.90;100.00;101236.97;6042422;23;20168;-72
2024/02/28 04:22:47;;;;;;;36.47;15.80;;;;;;;4.91;100.00;101227.28;6042714;23;20270;-72
2024/02/28 04:25:14;;;;;;;41.57;14.77;;;;;;;4.91;100.00;101235.91;6042400;23;20226;-72
2024/02/28 04:27:40;;;;;;;36.37;13.80;;;;;;;4.90;100.00;101239.59;6043048;23;20168;-72
2024/02/28 04:30:08;;;;;;;38.40;13.30;;;;;;;4.91;100.00;101241.16;6042123;23;20167;-72
2024/02/28 04:32:35;;;;;;;32.60;13.67;;;;;;;4.91;100.00;101246.38;6042469;23;20188;-72
2024/02/28 04:35:02;;;;;;;35.13;13.50;;;;;;;4.91;100.00;101256.06;6042210;23;20618;-72
2024/02/28 04:37:28;;;;;;;38.37;13.87;;;;;;;4.91;100.00;101261.28;6043369;23;20179;-72
2024/02/28 04:39:56;;;;;;;42.40;15.37;;;;;;;4.90;100.00;101264.97;6045701;23;20171;-72
2024/02/28 04:42:22;;;;;;;37.40;13.63;;;;;;;4.92;100.00;101281.19;6044092;23;20664;-72
2024/02/28 04:44:49;;;;;;;35.00;14.03;;;;;;;4.92;100.00;101270.72;6044392;23;20189;-72
2024/02/28 04:47:15;;;;;;;41.63;14.60;;;;;;;4.90;100.00;101284.06;6044782;23;20172;-72
2024/02/28 04:49:41;;;;;;;36.73;14.50;;;;;;;4.92;100.00;101287.19;6044779;23;20168;-72
2024/02/28 04:52:08;;;;;;;30.53;12.27;;;;;;;4.92;100.00;101281.97;6044932;23;20377;-72
2024/02/28 04:54:34;;;;;;;38.70;13.73;;;;;;;4.91;100.00;101277.78;6044207;23;20171;-72
2024/02/28 04:57:03;;;;;;;28.30;11.67;;;;;;;4.91;100.00;101284.84;6044033;23;20192;-72
2024/02/28 04:59:30;;;;;;;31.97;11.43;;;;;;;4.91;100.00;101292.69;6044512;23;20254;-72
2024/02/28 05:01:56;;;;;;;29.53;11.50;;;;;;;4.91;100.00;101296.09;6044442;23;20215;-72
2024/02/28 05:04:23;;;;;;;33.87;11.57;;;;;;;4.92;100.00;101299.50;6009060;23;20185;-72
2024/02/28 05:06:49;;;;;;;31.33;12.27;;;;;;;4.91;100.00;101296.09;6044629;23;20262;-72
2024/02/28 05:09:16;;;;;;;35.30;11.87;;;;;;;4.90;100.00;101305.00;6043877;23;20194;-72
2024/02/28 05:11:42;;;;;;;36.67;12.77;;;;;;;4.91;100.00;101303.16;6044445;23;20641;-72
2024/02/28 05:14:11;;;;;;;33.37;12.87;;;;;;;4.88;100.00;101301.09;6009615;23;21008;-72
2024/02/28 05:16:37;;;;;;;30.97;12.00;;;;;;;4.90;100.00;101312.06;6044422;23;20198;-72
2024/02/28 05:19:04;;;;;;;37.23;12.63;;;;;;;4.87;100.00;101300.31;6043829;23;20171;-72
2024/02/28 05:21:30;;;;;;;36.40;13.13;;;;;;;4.88;100.00;101319.41;6044659;23;20227;-72
2024/02/28 05:23:57;;;;;;;36.43;13.20;;;;;;;4.86;100.00;101314.44;6009442;23;20199;-72
2024/02/28 05:26:23;;;;;;;32.23;12.93;;;;;;;4.86;100.00;101313.66;6044536;23;20175;-72
2024/02/28 05:28:49;;;;;;;32.17;12.90;;;;;;;4.87;100.00;101329.09;6009976;23;20179;-72
2024/02/28 05:31:25;;;;;;;36.70;11.73;;;;;;;4.86;100.00;101330.16;6009319;23;20186;-72
2024/02/28 05:33:52;;;;;;;33.67;12.70;;;;;;;4.84;100.00;101334.09;6043229;23;20526;-72
2024/02/28 05:36:19;;;;;;;33.20;11.73;;;;;;;4.84;100.00;101331.47;6043102;23;20181;-72
2024/02/28 05:38:45;;;;;;;31.83;10.60;;;;;;;4.83;100.00;101332.53;6043918;23;20201;-72
2024/02/28 05:41:12;;;;;;;35.30;11.43;;;;;;;4.82;100.00;101336.19;6043792;23;20178;-72
2024/02/28 05:43:39;;;;;;;34.50;12.63;;;;;;;4.80;100.00;101328.59;6043112;23;20203;-72
2024/02/28 05:46:05;;;;;;;30.37;11.30;;;;;;;4.81;100.00;101337.25;6044397;23;20295;-72
2024/02/28 05:48:33;;;;;;;32.93;12.17;;;;;;;4.80;100.00;101331.22;6043006;23;20250;-72
2024/02/28 05:51:01;;;;;;;30.80;12.33;;;;;;;4.81;100.00;101338.03;6044037;23;20733;-72
2024/02/28 05:53:31;;;;;;;34.37;11.80;;;;;;;4.81;100.00;101340.63;6044578;23;20197;-72
2024/02/28 05:55:57;;;;;;;27.20;11.30;;;;;;;4.81;100.00;101339.88;6043710;23;20179;-72
2024/02/28 05:58:25;;;;;;;36.40;12.77;;;;;;;4.80;100.00;101343.50;6044301;23;20185;-72
2024/02/28 06:00:51;;;;;;;35.63;12.27;;;;;;;4.79;100.00;101344.56;6043879;23;20529;-72
2024/02/28 06:03:18;;;;;;;35.27;13.90;;;;;;;4.76;100.00;101340.66;6043513;23;20199;-72
2024/02/28 06:05:46;;;;;;;34.40;12.80;;;;;;;4.78;100.00;101340.41;6043889;23;20171;-72
2024/02/28 06:08:13;;;;;;;33.27;12.17;;;;;;;4.78;100.00;101345.63;6044378;23;20546;-72
2024/02/28 06:10:42;;;;;;;34.67;12.93;;;;;;;4.76;100.00;101358.97;6043917;23;20708;-72
2024/02/28 06:13:08;;;;;;;33.77;13.07;;;;;;;4.76;100.00;101361.59;6043830;23;20722;-72
2024/02/28 06:15:34;;;;;;;40.40;13.40;;;;;;;4.77;100.00;101352.69;6044156;23;20167;-72
2024/02/28 06:18:02;;;;;;;38.57;14.03;;;;;;;4.76;100.00;101363.44;6044844;23;20242;-72
2024/02/28 06:20:28;;;;;;;38.90;13.50;;;;;;;4.77;100.00;101371.00;6044681;23;20272;-72
2024/02/28 06:22:56;;;;;;;39.07;13.63;;;;;;;4.77;100.00;101368.38;6044259;23;20191;-72
2024/02/28 06:25:23;;;;;;;42.30;14.10;;;;;;;4.77;100.00;101370.22;6043869;23;20175;-72
2024/02/28 06:27:50;;;;;;;42.23;14.03;;;;;;;4.76;100.00;101373.91;6044391;23;20258;-72
2024/02/28 06:30:17;;;;;;;41.60;13.33;;;;;;;4.76;100.00;101372.06;6044408;23;20172;-72
2024/02/28 06:32:44;;;;;;;39.07;13.40;;;;;;;4.77;100.00;101381.47;6043982;23;20211;-72
2024/02/28 06:35:10;;;;;;;43.37;13.17;;;;;;;4.78;100.00;101382.25;6043326;23;20191;-72
2024/02/28 06:37:37;;;;;;;34.93;13.97;;;;;;;4.76;100.00;101381.75;6043960;23;20636;-72
2024/02/28 06:40:11;;;;;;;39.93;13.40;;;;;;;4.75;100.00;101388.00;6009211;23;20591;-72
2024/02/28 06:42:37;;;;;;;35.87;13.27;;;;;;;4.74;100.00;101386.44;6008949;23;20231;-72
2024/02/28 06:45:04;;;;;;;37.63;13.83;;;;;;;4.74;100.00;101389.06;6043269;23;20202;-72
2024/02/28 06:47:32;;;;;;;37.73;12.67;;;;;;;4.72;100.00;101389.31;6044192;23;20175;-72
2024/02/28 06:49:58;;;;;;;37.80;13.27;;;;;;;4.73;100.00;101396.16;6043651;23;20175;-72
2024/02/28 06:52:25;;;;;;;33.97;12.60;;;;;;;4.73;100.00;101398.75;6043466;23;20209;-72
2024/02/28 06:54:51;;;;;;;34.77;12.67;;;;;;;4.72;100.00;101405.03;6043758;23;20179;-72
2024/02/28 06:57:19;;;;;;;32.97;12.17;;;;;;;4.73;100.00;101395.34;6043510;23;20633;-72
2024/02/28 06:59:46;;;;;;;25.83;10.87;;;;;;;4.70;100.00;101407.13;6043493;23;20167;-72
2024/02/28 07:02:12;;;;;;;35.70;12.03;;;;;;;4.67;100.00;101407.66;6042148;23;20195;-72
2024/02/28 07:04:40;;;;;;;34.63;11.33;;;;;;;4.69;100.00;101402.94;6042242;23;20171;-72
2024/02/28 07:07:07;;;;;;;32.10;11.90;;;;;;;4.69;100.00;101410.81;6043622;23;20163;-72
2024/02/28 07:09:33;;;;;;;32.53;11.10;;;;;;;4.69;100.00;101415.22;6043842;23;20564;-72
2024/02/28 07:12:00;;;;;;;32.87;11.87;;;;;;;4.67;100.00;101418.09;6043460;23;20790;-72
2024/02/28 07:14:28;;;;;;;31.00;11.63;;;;;;;4.66;100.00;101419.16;6043765;23;20167;-72
2024/02/28 07:16:55;;;;;;;30.53;10.80;;;;;;;4.69;100.00;101421.25;6043277;23;20542;-72
2024/02/28 07:19:24;;;;;;;28.63;11.30;;;;;;;4.68;100.00;101413.69;6043284;23;20174;-72
2024/02/28 07:21:51;;;;;;;35.13;12.07;;;;;;;4.66;100.00;101421.78;6043286;23;20221;-72
2024/02/28 07:24:17;;;;;;;31.43;10.70;;;;;;;4.67;100.00;101425.97;6043515;23;20308;-72
2024/02/28 07:26:43;;;;;;;31.57;10.70;;;;;;;4.64;100.00;101429.13;6008246;23;20645;-72
2024/02/28 07:29:10;;;;;;;27.10;10.70;;;;;;;4.65;100.00;101424.66;6042939;23;20648;-72
2024/02/28 07:31:37;;;;;;;25.87;9.87;;;;;;;4.64;100.00;101436.19;6043708;23;20167;-72
2024/02/28 07:34:04;;;;;;;30.93;10.80;;;;;;;4.63;100.00;101432.78;6043440;23;20171;-72
2024/02/28 07:36:31;;;;;;;27.40;10.10;;;;;;;4.64;100.00;101429.13;6043235;23;20246;-72
2024/02/28 07:38:57;;;;;;;25.33;9.90;;;;;;;4.65;100.00;101432.50;6044193;23;20176;-72
2024/02/28 07:41:23;;;;;;;30.13;10.10;;;;;;;4.67;100.00;101439.03;6043606;23;20258;-72
2024/02/28 07:43:50;;;;;;;27.53;10.03;;;;;;;4.69;100.00;101438.78;6042418;23;20272;-72
2024/02/28 07:46:16;;;;;;;28.37;9.77;;;;;;;4.70;100.00;101440.34;6043552;23;20174;-72
2024/02/28 07:48:44;;;;;;;31.83;10.23;;;;;;;4.68;100.00;101438.00;6043607;23;20178;-72
2024/02/28 07:51:11;;;;;;;20.50;8.23;;;;;;;4.67;100.00;101440.88;6043307;23;20179;-72
2024/02/28 07:53:37;;;;;;;27.60;9.10;;;;;;;4.69;100.00;101444.00;6042849;23;20533;-72
2024/02/28 07:56:04;;;;;;;20.97;9.00;;;;;;;4.67;100.00;101446.13;6042531;23;20171;-72
2024/02/28 07:58:30;;;;;;;18.60;8.37;;;;;;;4.67;100.00;101439.03;6043037;23;20516;-72
2024/02/28 08:00:57;;;;;;;22.60;9.33;;;;;;;4.67;100.00;101443.50;6042890;23;20497;-72
2024/02/28 08:03:23;;;;;;;21.33;9.10;;;;;;;4.67;100.00;101443.50;6042361;23;20659;-72
2024/02/28 08:05:51;;;;;;;21.30;9.00;;;;;;;4.70;100.00;101442.97;6043031;23;20175;-72
2024/02/28 08:08:17;;;;;;;24.93;9.70;;;;;;;4.71;100.00;101447.94;6043890;23;20175;-72
2024/02/28 08:10:45;;;;;;;22.03;9.90;;;;;;;4.71;100.00;101452.41;6042913;23;20171;-72
2024/02/28 08:13:11;;;;;;;22.40;8.57;;;;;;;4.68;100.00;101461.56;6042996;23;20188;-72
2024/02/28 08:15:38;;;;;;;32.23;9.80;;;;;;;4.69;100.00;101452.66;6043367;23;20609;-72
2024/02/28 08:18:04;;;;;;;28.10;11.10;;;;;;;4.67;100.00;101454.72;6009135;23;20182;-72
2024/02/28 08:20:31;;;;;;;20.13;8.57;;;;;;;4.68;100.00;101458.94;6043547;23;20250;-72
2024/02/28 08:23:00;;;;;;;20.50;8.37;;;;;;;4.67;100.00;101446.88;6008031;23;20210;-72
2024/02/28 08:25:26;;;;;;;20.90;8.83;;;;;;;4.69;100.00;101452.66;6008315;23;20179;-72
2024/02/28 08:27:52;;;;;;;17.80;7.93;;;;;;;4.70;100.00;101453.41;6042950;23;20185;-72
2024/02/28 08:30:19;;;;;;;16.93;7.30;;;;;;;4.71;100.00;101463.63;6040412;23;20518;-72
2024/02/28 08:32:45;;;;;;;17.07;7.67;;;;;;;4.72;100.00;101454.72;6043083;23;20191;-73
2024/02/28 08:35:11;;;;;;;16.63;7.37;;;;;;;4.73;100.00;101465.97;6043571;23;20490;-72
2024/02/28 08:37:39;;;;;;;18.20;7.27;;;;;;;4.71;100.00;101466.25;6009453;23;20229;-72
2024/02/28 08:40:08;;;;;;;17.03;6.97;;;;;;;4.72;100.00;101467.81;6044598;23;20171;-72
2024/02/28 08:42:34;;;;;;;15.13;6.40;;;;;;;4.73;100.00;101472.00;6042273;23;20266;-72
2024/02/28 08:45:03;;;;;;;14.13;6.23;;;;;;;4.70;100.00;101467.28;6042623;23;20199;-72
2024/02/28 08:47:33;;;;;;;10.77;5.63;;;;;;;4.71;100.00;101462.84;6043420;23;20171;-72
2024/02/28 08:50:01;;;;;;;13.50;6.40;;;;;;;4.74;100.00;101470.97;6009566;23;20172;-72
2024/02/28 08:52:27;;;;;;;13.67;5.93;;;;;;;4.73;100.00;101482.47;6042841;23;20202;-72
2024/02/28 08:54:53;;;;;;;12.20;6.10;;;;;;;4.72;100.00;101475.66;6043686;23;20167;-72
2024/02/28 08:57:23;;;;;;;14.80;6.30;;;;;;;4.79;100.00;101478.00;6043303;23;20190;-72
2024/02/28 08:59:49;;;;;;;10.97;6.00;;;;;;;4.83;100.00;101485.03;6042914;23;20170;-72
2024/02/28 09:02:19;;;;;;;14.90;6.90;;;;;;;4.86;100.00;101486.34;6043080;23;20199;-72
2024/02/28 09:04:45;;;;;;;11.97;6.30;;;;;;;4.91;100.00;101492.38;6043230;23;20194;-72
2024/02/28 09:07:12;;;;;;;15.20;6.17;;;;;;;4.97;100.00;101491.31;6044648;23;20178;-72
2024/02/28 09:09:43;;;;;;;14.97;8.97;;;;;;;5.02;100.00;101493.13;6044584;23;20178;-72
2024/02/28 09:12:09;;;;;;;13.00;6.77;;;;;;;5.03;100.00;101492.09;6044393;23;20191;-72
2024/02/28 09:14:37;;;;;;;11.37;6.60;;;;;;;5.08;100.00;101494.69;6009988;23;20621;-73
2024/02/28 09:17:04;;;;;;;13.57;6.73;;;;;;;5.13;100.00;101505.91;6043983;23;20251;-72
2024/02/28 09:19:33;;;;;;;15.97;8.37;;;;;;;5.19;100.00;101510.06;6035689;23;20573;-72
2024/02/28 09:22:00;;;;;;;13.33;7.47;;;;;;;5.18;100.00;101505.91;6043585;23;20510;-72
2024/02/28 09:24:27;;;;;;;13.57;7.47;;;;;;;5.22;100.00;101493.84;6044808;23;20210;-72
2024/02/28 09:26:53;;;;;;;15.13;7.67;;;;;;;5.21;100.00;101502.75;6044964;23;20181;-72
2024/02/28 09:29:20;;;;;;;14.83;7.77;;;;;;;5.24;100.00;101507.44;6010192;23;20175;-72
2024/02/28 09:31:47;;;;;;;14.97;7.30;;;;;;;5.22;100.00;101516.63;6044351;23;20167;-72
2024/02/28 09:34:14;;;;;;;16.47;6.80;;;;;;;5.20;100.00;101514.28;6044609;23;20168;-72
2024/02/28 09:36:45;;;;;;;13.57;6.60;;;;;;;5.22;100.00;101509.56;6044533;23;20196;-72
2024/02/28 09:39:11;;;;;;;10.07;5.73;;;;;;;5.24;100.00;101511.91;6044560;23;20490;-72
2024/02/28 09:41:38;;;;;;;12.23;6.60;;;;;;;5.22;100.00;101522.66;6044133;23;20181;-72
2024/02/28 09:44:06;;;;;;;14.90;7.03;;;;;;;5.20;100.00;101513.50;6043335;23;20199;-72
2024/02/28 09:46:34;;;;;;;11.40;6.20;;;;;;;5.18;100.00;101512.97;6044462;23;20250;-71
2024/02/28 09:49:03;;;;;;;13.33;7.10;;;;;;;5.17;100.00;101519.25;6044514;23;20168;-71
2024/02/28 09:51:33;;;;;;;10.30;5.50;;;;;;;5.16;100.00;101528.94;6010345;23;20210;-72
2024/02/28 09:54:02;;;;;;;9.73;5.43;;;;;;;5.13;100.00;101526.84;6009226;23;20172;-72
2024/02/28 09:56:28;;;;;;;10.13;5.13;;;;;;;5.10;100.00;101526.59;6043917;23;20195;-72
2024/02/28 09:58:55;;;;;;;11.47;6.57;;;;;;;5.12;100.00;101541.00;6044282;23;20176;-71
2024/02/28 10:01:23;;;;;;;23.17;11.63;;;;;;;5.07;100.00;101532.38;6043991;23;20176;-71
2024/02/28 10:03:52;;;;;;;15.67;7.83;;;;;;;5.07;100.00;101535.00;6043932;23;20192;-71
2024/02/28 10:06:20;;;;;;;18.60;9.70;;;;;;;5.08;100.00;101532.09;6044083;23;20167;-71
2024/02/28 10:08:47;;;;;;;43.77;20.33;;;;;;;5.06;100.00;101536.03;6044810;23;20168;-71
2024/02/28 10:11:18;;;;;;;33.20;15.87;;;;;;;5.05;100.00;101542.31;6044850;23;20195;-71
2024/02/28 10:13:44;;;;;;;17.10;8.77;;;;;;;5.04;100.00;101544.19;6045434;23;20243;-73
2024/02/28 10:16:11;;;;;;;14.43;11.17;;;;;;;5.05;100.00;101540.50;6010526;23;20186;-72
2024/02/28 10:18:37;;;;;;;9.50;6.93;;;;;;;5.06;100.00;101549.91;6045387;23;20175;-72
2024/02/28 10:21:05;;;;;;;8.50;5.80;;;;;;;5.04;100.00;101564.31;6045840;23;20171;-72
2024/02/28 10:23:32;;;;;;;10.87;6.13;;;;;;;5.03;100.00;101558.28;6044897;23;20225;-72
2024/02/28 10:26:01;;;;;;;9.30;5.97;;;;;;;5.04;100.00;101557.25;6045141;23;20174;-72
2024/02/28 10:28:28;;;;;;;7.33;4.93;;;;;;;4.99;100.00;101557.28;6045012;23;20258;-72
2024/02/28 10:30:55;;;;;;;8.87;5.57;;;;;;;5.00;100.00;101566.69;6010327;23;20175;-72
2024/02/28 10:33:21;;;;;;;6.73;4.93;;;;;;;5.00;100.00;101563.28;6045102;23;20243;-72
2024/02/28 10:35:51;;;;;;;7.50;5.00;;;;;;;4.99;100.00;101566.94;6045286;23;20171;-72
2024/02/28 10:38:18;;;;;;;7.70;4.77;;;;;;;4.92;100.00;101572.44;6045511;23;20176;-72
2024/02/28 10:40:49;;;;;;;8.33;4.97;;;;;;;4.90;100.00;101576.38;6045665;23;20637;-72
2024/02/28 10:43:18;;;;;;;7.97;4.87;;;;;;;4.93;100.00;101571.38;6044850;23;20633;-72
2024/02/28 10:45:44;;;;;;;8.50;5.37;;;;;;;4.94;100.00;101575.59;6044589;23;20168;-72
2024/02/28 10:48:12;;;;;;;7.60;4.87;;;;;;;4.93;100.00;101578.47;6044835;23;20206;-72
2024/02/28 10:50:41;;;;;;;6.97;4.80;;;;;;;4.93;100.00;101571.38;6044875;23;20172;-72
2024/02/28 10:53:14;;;;;;;5.80;4.20;;;;;;;4.94;100.00;101575.59;6041425;23;20242;-72
2024/02/28 10:55:43;;;;;;;8.73;6.03;;;;;;;4.94;100.00;101580.81;6043796;23;20516;-72
2024/02/28 10:58:11;;;;;;;7.57;5.30;;;;;;;4.97;100.00;101576.91;6044494;23;20661;-72
2024/02/28 11:00:41;;;;;;;7.03;4.17;;;;;;;4.98;100.00;101571.38;6044254;23;20509;-72
2024/02/28 11:03:09;;;;;;;5.50;4.07;;;;;;;4.98;100.00;101570.63;6009403;23;20677;-72
2024/02/28 11:05:37;;;;;;;5.50;3.90;;;;;;;4.98;100.00;101575.84;6034685;23;20705;-72
2024/02/28 11:08:04;;;;;;;5.43;3.60;;;;;;;4.97;100.00;101585.53;6043667;23;20171;-72
2024/02/28 11:10:33;;;;;;;6.10;4.20;;;;;;;5.01;100.00;101578.72;6044297;23;20181;-72